createdAt,value
2023-03-10T00:01:24.736Z,34.60
2023-03-10T00:03:54.438Z,35.50
2023-03-10T00:06:24.875Z,35.30
2023-03-10T00:08:53.171Z,37.40
2023-03-10T00:11:22.122Z,35.10
2023-03-10T00:13:50.308Z,35.50
2023-03-10T00:16:21.446Z,34.40
2023-03-10T00:18:50.994Z,36.40
2023-03-10T00:21:21.631Z,37.10
2023-03-10T00:23:49.707Z,35.60
2023-03-10T00:26:19.528Z,36.70
2023-03-10T00:28:47.872Z,38.70
2023-03-10T00:31:21.545Z,38.00
2023-03-10T00:33:50.445Z,38.80
2023-03-10T00:36:22.902Z,38.70
2023-03-10T00:38:51.927Z,38.10
2023-03-10T00:41:25.759Z,39.40
2023-03-10T00:43:54.111Z,38.20
2023-03-10T00:46:22.169Z,38.30
2023-03-10T00:48:50.238Z,38.70
2023-03-10T00:51:19.960Z,41.00
2023-03-10T00:53:49.649Z,40.40
2023-03-10T00:56:19.010Z,39.30
2023-03-10T00:58:50.104Z,40.50
2023-03-10T01:01:27.433Z,41.10
2023-03-10T01:03:57.751Z,40.30
2023-03-10T01:06:26.259Z,40.10
2023-03-10T01:08:55.295Z,39.80
2023-03-10T01:11:27.000Z,43.10
2023-03-10T01:14:00.172Z,44.00
2023-03-10T01:16:28.833Z,43.60
2023-03-10T01:18:58.158Z,44.40
2023-03-10T01:21:29.417Z,39.30
2023-03-10T01:23:57.808Z,43.30
2023-03-10T01:26:25.829Z,45.80
2023-03-10T01:28:54.095Z,48.50
2023-03-10T01:31:22.687Z,43.20
2023-03-10T01:33:50.709Z,41.50
2023-03-10T01:36:26.221Z,41.60
2023-03-10T01:38:56.647Z,42.20
2023-03-10T01:41:25.662Z,40.80
2023-03-10T01:43:56.133Z,40.80
2023-03-10T01:46:27.322Z,42.10
2023-03-10T01:48:59.692Z,41.00
2023-03-10T01:51:33.312Z,42.40
2023-03-10T01:54:04.301Z,39.80
2023-03-10T01:56:32.172Z,42.00
2023-03-10T01:59:00.289Z,41.90
2023-03-10T02:01:31.119Z,39.30
2023-03-10T02:04:08.030Z,37.60
2023-03-10T02:06:37.635Z,40.40
2023-03-10T02:09:06.060Z,39.90
2023-03-10T02:11:34.304Z,39.00
2023-03-10T02:14:06.900Z,38.80
2023-03-10T02:16:35.139Z,39.40
2023-03-10T02:19:09.097Z,44.00
2023-03-10T02:21:45.621Z,41.40
2023-03-10T02:24:27.397Z,39.20
2023-03-10T02:27:14.961Z,38.20
2023-03-10T02:29:59.401Z,37.60
2023-03-10T02:32:34.319Z,37.50
2023-03-10T02:35:04.044Z,36.70
2023-03-10T02:37:35.695Z,37.80
2023-03-10T02:40:22.767Z,38.60
2023-03-10T02:42:51.564Z,35.90
2023-03-10T02:45:19.561Z,39.20
2023-03-10T02:47:47.666Z,38.70
2023-03-10T02:50:18.109Z,37.60
2023-03-10T02:53:08.176Z,39.10
2023-03-10T02:55:36.322Z,35.70
2023-03-10T02:58:04.395Z,38.50
2023-03-10T03:00:32.335Z,37.90
2023-03-10T03:03:00.149Z,37.50
2023-03-10T03:05:28.097Z,40.70
2023-03-10T03:07:56.993Z,39.60
2023-03-10T03:10:25.788Z,40.00
2023-03-10T03:12:56.281Z,40.20
2023-03-10T03:15:26.403Z,38.40
2023-03-10T03:17:55.045Z,39.40
2023-03-10T03:20:23.437Z,41.50
2023-03-10T03:22:52.539Z,39.00
2023-03-10T03:25:22.720Z,41.60
2023-03-10T03:27:50.854Z,41.90
2023-03-10T03:30:23.671Z,43.10
2023-03-10T03:32:53.744Z,40.50
2023-03-10T03:35:29.895Z,45.00
2023-03-10T03:37:58.088Z,42.30
2023-03-10T03:40:28.778Z,42.30
2023-03-10T03:42:57.481Z,42.70
2023-03-10T03:45:27.466Z,42.70
2023-03-10T03:47:56.437Z,41.00
2023-03-10T03:50:25.726Z,42.30
2023-03-10T03:52:55.715Z,42.30
2023-03-10T03:55:24.313Z,43.60
2023-03-10T03:57:52.671Z,44.30
2023-03-10T04:00:23.599Z,41.70
2023-03-10T04:02:56.423Z,43.00
2023-03-10T04:05:26.462Z,41.90
2023-03-10T04:07:54.368Z,41.60
2023-03-10T04:10:24.291Z,40.40
2023-03-10T04:12:52.516Z,42.00
2023-03-10T04:15:20.950Z,41.70
2023-03-10T04:17:49.176Z,39.80
2023-03-10T04:20:18.235Z,41.70
2023-03-10T04:22:48.647Z,40.80
2023-03-10T04:25:16.713Z,41.90
2023-03-10T04:27:44.796Z,43.30
2023-03-10T04:30:14.833Z,43.30
2023-03-10T04:32:47.923Z,43.60
2023-03-10T04:35:17.563Z,42.60
2023-03-10T04:37:45.513Z,42.30
2023-03-10T04:40:14.642Z,44.20
2023-03-10T04:42:43.015Z,43.40
2023-03-10T04:45:12.012Z,43.80
2023-03-10T04:47:41.645Z,40.80
2023-03-10T04:50:11.586Z,45.20
2023-03-10T04:52:40.700Z,44.80
2023-03-10T04:55:09.453Z,44.50
2023-03-10T04:57:37.525Z,44.60
2023-03-10T05:00:08.239Z,44.10
2023-03-10T05:02:37.706Z,43.10
2023-03-10T05:05:06.533Z,45.00
2023-03-10T05:07:35.604Z,46.90
2023-03-10T05:10:04.871Z,45.50
2023-03-10T05:12:33.585Z,47.20
2023-03-10T05:15:02.161Z,46.20
2023-03-10T05:17:30.584Z,46.50
2023-03-10T05:19:59.210Z,46.80
2023-03-10T05:22:27.632Z,45.80
2023-03-10T05:24:55.961Z,46.00
2023-03-10T05:27:24.776Z,48.30
2023-03-10T05:29:54.150Z,45.00
2023-03-10T05:32:25.000Z,44.20
2023-03-10T05:34:53.617Z,44.50
2023-03-10T05:37:21.671Z,44.30
2023-03-10T05:39:49.664Z,44.80
2023-03-10T05:42:20.571Z,43.20
2023-03-10T05:44:48.760Z,44.10
2023-03-10T05:47:19.215Z,42.90
2023-03-10T05:49:47.366Z,51.80
2023-03-10T05:52:15.584Z,57.50
2023-03-10T05:54:44.331Z,53.50
2023-03-10T05:57:14.112Z,46.00
2023-03-10T05:59:43.166Z,44.60
2023-03-10T06:02:11.439Z,45.00
2023-03-10T06:04:39.373Z,46.80
2023-03-10T06:07:07.353Z,60.70
2023-03-10T06:09:35.194Z,47.20
2023-03-10T06:12:03.220Z,46.10
2023-03-10T06:14:31.099Z,45.40
2023-03-10T06:16:59.105Z,44.90
2023-03-10T06:19:27.591Z,125.90
2023-03-10T06:21:55.466Z,212.20
2023-03-10T06:24:23.345Z,268.80
2023-03-10T06:26:51.270Z,228.70
2023-03-10T06:29:19.586Z,77.70
2023-03-10T06:31:47.667Z,60.10
2023-03-10T06:34:15.730Z,52.20
2023-03-10T06:36:43.872Z,49.20
2023-03-10T06:39:11.738Z,50.10
2023-03-10T06:41:39.661Z,101.80
2023-03-10T06:44:07.620Z,177.30
2023-03-10T06:46:35.733Z,86.40
2023-03-10T06:49:03.639Z,79.00
2023-03-10T06:51:31.567Z,319.90
2023-03-10T06:53:59.435Z,175.80
2023-03-10T06:56:27.290Z,163.60
2023-03-10T06:58:55.291Z,190.40
2023-03-10T07:01:34.453Z,105.50
2023-03-10T07:04:02.503Z,82.20
2023-03-10T07:06:30.804Z,65.50
2023-03-10T07:08:58.859Z,51.90
2023-03-10T07:11:27.541Z,59.00
2023-03-10T07:13:55.543Z,64.60
2023-03-10T07:16:23.568Z,76.80
2023-03-10T07:18:51.551Z,99.10
2023-03-10T07:21:21.017Z,87.40
2023-03-10T07:23:49.730Z,95.50
2023-03-10T07:26:18.929Z,90.30
2023-03-10T07:28:47.468Z,78.70
2023-03-10T07:31:16.413Z,67.90
2023-03-10T07:33:44.608Z,51.20
2023-03-10T07:36:16.742Z,46.70
2023-03-10T07:38:45.548Z,47.40
2023-03-10T07:41:19.261Z,58.40
2023-03-10T07:43:47.763Z,57.40
2023-03-10T07:46:16.066Z,59.50
2023-03-10T07:48:44.357Z,53.90
2023-03-10T07:51:12.684Z,50.50
2023-03-10T07:53:41.093Z,56.00
2023-03-10T07:56:10.940Z,51.10
2023-03-10T07:58:39.782Z,43.20
2023-03-10T08:01:10.713Z,38.50
2023-03-10T08:03:38.626Z,37.90
2023-03-10T08:06:07.084Z,40.30
2023-03-10T08:08:35.719Z,41.30
2023-03-10T08:11:06.482Z,57.10
2023-03-10T08:13:34.510Z,74.90
2023-03-10T08:16:03.162Z,65.70
2023-03-10T08:18:31.685Z,39.40
2023-03-10T08:21:03.228Z,46.30
2023-03-10T08:23:31.110Z,32.10
2023-03-10T08:26:04.326Z,48.10
2023-03-10T08:28:35.191Z,59.50
2023-03-10T08:31:15.621Z,52.50
2023-03-10T08:33:45.171Z,45.90
2023-03-10T08:36:16.982Z,45.00
2023-03-10T08:38:45.882Z,53.10
2023-03-10T08:41:20.130Z,42.90
2023-03-10T08:43:49.595Z,49.10
2023-03-10T08:46:20.137Z,32.50
2023-03-10T08:48:48.564Z,41.60
2023-03-10T08:51:17.613Z,42.20
2023-03-10T08:53:48.615Z,39.10
2023-03-10T08:56:18.209Z,68.10
2023-03-10T08:58:46.620Z,41.00
2023-03-10T09:01:16.879Z,45.80
2023-03-10T09:03:46.027Z,32.60
2023-03-10T09:06:15.502Z,22.90
2023-03-10T09:08:43.655Z,23.90
2023-03-10T09:11:20.586Z,29.50
2023-03-10T09:13:48.808Z,44.20
2023-03-10T09:16:17.377Z,27.20
2023-03-10T09:18:45.702Z,32.60
2023-03-10T09:21:16.214Z,23.00
2023-03-10T09:23:46.101Z,39.40
2023-03-10T09:26:15.006Z,30.40
2023-03-10T09:28:42.898Z,32.20
2023-03-10T09:31:17.515Z,22.50
2023-03-10T09:33:48.232Z,28.10
2023-03-10T09:36:17.732Z,23.70
2023-03-10T09:38:46.844Z,24.30
2023-03-10T09:41:39.717Z,37.00
2023-03-10T09:44:19.347Z,24.50
2023-03-10T09:47:14.450Z,19.60
2023-03-10T09:50:02.367Z,20.40
2023-03-10T09:52:46.019Z,21.60
2023-03-10T09:55:27.938Z,22.40
2023-03-10T09:57:57.319Z,17.40
2023-03-10T10:00:39.524Z,14.30
2023-03-10T10:03:22.636Z,12.00
2023-03-10T10:05:53.817Z,16.10
2023-03-10T10:08:29.110Z,14.70
2023-03-10T10:11:00.336Z,19.80
2023-03-10T10:13:30.748Z,21.00
2023-03-10T10:16:34.009Z,13.10
2023-03-10T10:19:29.405Z,23.10
2023-03-10T10:21:57.269Z,12.80
2023-03-10T10:24:25.557Z,8.90
2023-03-10T10:26:53.360Z,12.80
2023-03-10T10:29:36.673Z,16.70
2023-03-10T10:32:13.434Z,8.10
2023-03-10T10:34:46.545Z,10.00
2023-03-10T10:37:23.756Z,16.30
2023-03-10T10:39:54.453Z,8.10
2023-03-10T10:42:36.496Z,18.30
2023-03-10T10:45:06.659Z,31.20
2023-03-10T10:47:47.763Z,18.30
2023-03-10T10:50:23.098Z,11.30
2023-03-10T10:53:15.685Z,14.60
2023-03-10T10:55:46.634Z,9.10
2023-03-10T10:58:45.585Z,11.30
2023-03-10T11:01:16.477Z,11.80
2023-03-10T11:03:49.139Z,7.40
2023-03-10T11:06:29.711Z,6.50
2023-03-10T11:09:18.412Z,7.30
2023-03-10T11:12:04.507Z,20.80
2023-03-10T11:15:16.060Z,13.10
2023-03-10T11:18:01.212Z,6.30
2023-03-10T11:20:46.457Z,14.80
2023-03-10T11:23:19.722Z,24.00
2023-03-10T11:25:59.133Z,8.90
2023-03-10T11:28:39.392Z,6.40
2023-03-10T11:31:07.268Z,16.30
2023-03-10T11:34:12.044Z,15.20
2023-03-10T11:36:55.991Z,12.60
2023-03-10T11:39:30.885Z,4.70
2023-03-10T11:42:09.574Z,4.50
2023-03-10T11:44:55.925Z,6.10
2023-03-10T11:48:02.763Z,5.20
2023-03-10T11:50:48.415Z,4.80
2023-03-10T11:53:33.385Z,6.50
2023-03-10T11:56:02.967Z,10.40
2023-03-10T11:58:58.661Z,8.10
2023-03-10T12:01:33.281Z,4.60
2023-03-10T12:04:12.149Z,3.60
2023-03-10T12:06:56.999Z,4.40
2023-03-10T12:09:31.939Z,3.60
2023-03-10T12:12:03.552Z,9.10
2023-03-10T12:14:33.636Z,5.80
2023-03-10T12:17:04.363Z,6.70
2023-03-10T12:19:32.195Z,10.80
2023-03-10T12:22:24.928Z,11.80
2023-03-10T12:24:53.215Z,6.30
2023-03-10T12:27:21.239Z,10.00
2023-03-10T12:29:49.564Z,4.00
2023-03-10T12:32:39.743Z,6.80
2023-03-10T12:35:46.563Z,7.30
2023-03-10T12:38:31.551Z,6.70
2023-03-10T12:41:01.183Z,19.60
2023-03-10T12:43:47.101Z,17.50
2023-03-10T12:46:22.429Z,13.50
2023-03-10T12:49:03.754Z,9.20
2023-03-10T12:51:38.926Z,5.00
2023-03-10T12:54:38.220Z,4.10
2023-03-10T12:57:32.385Z,4.90
2023-03-10T13:00:14.470Z,5.90
2023-03-10T13:02:50.912Z,7.50
2023-03-10T13:05:23.891Z,8.20
2023-03-10T13:08:01.294Z,6.60
2023-03-10T13:10:32.631Z,14.20
2023-03-10T13:13:08.904Z,7.30
2023-03-10T13:15:36.806Z,5.90
2023-03-10T13:18:22.190Z,4.40
2023-03-10T13:20:50.777Z,4.20
2023-03-10T13:23:32.771Z,5.50
2023-03-10T13:26:05.003Z,5.40
2023-03-10T13:28:35.746Z,6.40
2023-03-10T13:31:14.746Z,15.70
2023-03-10T13:33:52.965Z,27.60
2023-03-10T13:36:31.454Z,25.00
2023-03-10T13:39:10.275Z,19.10
2023-03-10T13:41:41.229Z,22.70
2023-03-10T13:44:39.896Z,19.90
2023-03-10T13:47:27.001Z,20.90
2023-03-10T13:49:58.242Z,14.40
2023-03-10T13:52:29.229Z,12.70
2023-03-10T13:55:13.445Z,11.40
2023-03-10T13:57:42.886Z,12.20
2023-03-10T14:00:18.367Z,10.20
2023-03-10T14:02:49.389Z,11.90
2023-03-10T14:05:43.741Z,13.50
2023-03-10T14:08:24.307Z,22.70
2023-03-10T14:10:52.179Z,19.90
2023-03-10T14:13:40.567Z,19.60
2023-03-10T14:16:09.351Z,9.30
2023-03-10T14:18:39.120Z,8.20
2023-03-10T14:21:24.764Z,12.70
2023-03-10T14:23:53.707Z,29.80
2023-03-10T14:26:21.506Z,12.80
2023-03-10T14:28:49.380Z,13.50
2023-03-10T14:31:23.891Z,16.80
2023-03-10T14:33:52.051Z,9.30
2023-03-10T14:36:19.996Z,14.10
2023-03-10T14:38:47.998Z,25.90
2023-03-10T14:41:19.210Z,20.40
2023-03-10T14:43:47.099Z,26.90
2023-03-10T14:46:15.162Z,23.80
2023-03-10T14:48:43.557Z,13.10
2023-03-10T14:51:17.828Z,13.10
2023-03-10T14:53:50.632Z,9.10
2023-03-10T14:56:21.661Z,27.60
2023-03-10T14:58:52.410Z,18.40
2023-03-10T15:01:21.549Z,16.70
2023-03-10T15:03:49.527Z,12.20
2023-03-10T15:06:19.636Z,16.30
2023-03-10T15:08:47.438Z,18.00
2023-03-10T15:11:21.521Z,38.10
2023-03-10T15:13:58.362Z,30.30
2023-03-10T15:16:26.282Z,37.10
2023-03-10T15:18:54.114Z,24.70
2023-03-10T15:21:22.077Z,23.10
2023-03-10T15:23:49.956Z,35.20
2023-03-10T15:26:17.873Z,45.90
2023-03-10T15:28:45.854Z,48.50
2023-03-10T15:31:13.745Z,45.10
2023-03-10T15:33:41.590Z,33.20
2023-03-10T15:36:10.027Z,30.60
2023-03-10T15:38:38.960Z,30.70
2023-03-10T15:41:06.845Z,33.10
2023-03-10T15:43:34.769Z,28.30
2023-03-10T15:46:09.750Z,40.60
2023-03-10T15:48:37.698Z,51.90
2023-03-10T15:51:10.515Z,46.90
2023-03-10T15:53:38.730Z,55.50
2023-03-10T15:56:09.096Z,59.80
2023-03-10T15:58:37.141Z,52.40
2023-03-10T16:01:20.720Z,47.50
2023-03-10T16:03:51.346Z,42.70
2023-03-10T16:06:24.549Z,38.60
2023-03-10T16:08:52.346Z,35.90
2023-03-10T16:11:21.972Z,32.50
2023-03-10T16:13:49.886Z,33.80
2023-03-10T16:16:20.436Z,37.70
2023-03-10T16:18:49.191Z,50.00
2023-03-10T16:21:18.164Z,38.00
2023-03-10T16:23:46.586Z,39.10
2023-03-10T16:26:23.204Z,35.00
2023-03-10T16:28:54.945Z,38.90
2023-03-10T16:31:26.328Z,37.30
2023-03-10T16:33:55.531Z,33.90
2023-03-10T16:36:26.496Z,32.50
2023-03-10T16:38:54.610Z,33.30
2023-03-10T16:41:23.922Z,32.80
2023-03-10T16:43:54.296Z,36.60
2023-03-10T16:46:25.846Z,45.00
2023-03-10T16:48:54.734Z,60.20
2023-03-10T16:51:33.035Z,130.70
2023-03-10T16:54:10.836Z,100.50
2023-03-10T16:56:41.811Z,69.20
2023-03-10T16:59:13.486Z,87.00
2023-03-10T17:01:41.494Z,79.70
2023-03-10T17:04:09.795Z,73.20
2023-03-10T17:06:38.515Z,72.50
2023-03-10T17:09:09.282Z,68.40
2023-03-10T17:11:51.947Z,61.90
2023-03-10T17:14:21.836Z,85.70
2023-03-10T17:16:51.013Z,84.30
2023-03-10T17:19:22.668Z,54.60
2023-03-10T17:21:52.363Z,47.50
2023-03-10T17:24:20.630Z,40.40
2023-03-10T17:26:48.541Z,33.20
2023-03-10T17:29:16.936Z,59.90
2023-03-10T17:31:48.929Z,102.60
2023-03-10T17:34:17.960Z,54.00
2023-03-10T17:36:47.055Z,37.70
2023-03-10T17:39:19.255Z,22.40
2023-03-10T17:41:48.266Z,26.40
2023-03-10T17:44:16.860Z,25.20
2023-03-10T17:46:45.469Z,23.50
2023-03-10T17:49:15.400Z,29.00
2023-03-10T17:51:44.755Z,69.40
2023-03-10T17:54:15.853Z,27.10
2023-03-10T17:56:43.882Z,23.20
2023-03-10T17:59:14.388Z,20.30
2023-03-10T18:01:44.089Z,21.40
2023-03-10T18:04:12.554Z,24.20
2023-03-10T18:06:40.513Z,30.80
2023-03-10T18:09:13.917Z,26.90
2023-03-10T18:11:41.827Z,23.90
2023-03-10T18:14:09.910Z,20.60
2023-03-10T18:16:40.186Z,23.40
2023-03-10T18:19:11.141Z,22.60
2023-03-10T18:21:39.358Z,29.00
2023-03-10T18:24:08.894Z,23.60
2023-03-10T18:26:38.182Z,27.10
2023-03-10T18:29:06.154Z,23.40
2023-03-10T18:31:34.738Z,24.10
2023-03-10T18:34:02.815Z,25.20
2023-03-10T18:36:33.243Z,23.20
2023-03-10T18:39:03.979Z,19.90
2023-03-10T18:41:32.832Z,18.00
2023-03-10T18:44:01.669Z,19.40
2023-03-10T18:46:30.211Z,19.70
2023-03-10T18:48:58.473Z,20.00
2023-03-10T18:51:28.205Z,19.70
2023-03-10T18:53:56.886Z,21.20
2023-03-10T18:56:28.997Z,22.10
2023-03-10T18:58:57.724Z,29.90
2023-03-10T19:01:27.020Z,27.60
2023-03-10T19:03:56.055Z,74.00
2023-03-10T19:06:30.599Z,50.70
2023-03-10T19:08:59.117Z,50.40
2023-03-10T19:11:33.143Z,38.40
2023-03-10T19:14:02.689Z,100.50
2023-03-10T19:16:30.744Z,78.20
2023-03-10T19:18:58.799Z,65.70
2023-03-10T19:21:26.632Z,84.00
2023-03-10T19:23:55.666Z,129.00
2023-03-10T19:26:24.237Z,145.10
2023-03-10T19:28:53.560Z,48.20
2023-03-10T19:31:21.530Z,83.70
2023-03-10T19:33:49.739Z,147.30
2023-03-10T19:36:17.837Z,200.00
2023-03-10T19:38:46.123Z,125.90
2023-03-10T19:41:17.230Z,56.70
2023-03-10T19:43:46.750Z,78.00
2023-03-10T19:46:15.837Z,37.50
2023-03-10T19:48:44.778Z,72.80
2023-03-10T19:51:25.274Z,29.60
2023-03-10T19:53:55.395Z,31.30
2023-03-10T19:56:26.400Z,33.00
2023-03-10T19:58:54.372Z,38.30
2023-03-10T20:01:24.703Z,37.50
2023-03-10T20:03:55.305Z,36.60
2023-03-10T20:06:24.030Z,51.80
2023-03-10T20:08:52.433Z,39.70
2023-03-10T20:11:21.744Z,45.50
2023-03-10T20:13:52.584Z,38.60
2023-03-10T20:16:22.810Z,48.80
2023-03-10T20:18:50.734Z,74.90
2023-03-10T20:21:18.528Z,44.70
2023-03-10T20:23:48.625Z,66.20
2023-03-10T20:26:18.102Z,56.60
2023-03-10T20:28:46.383Z,104.80
2023-03-10T20:31:20.368Z,170.60
2023-03-10T20:33:48.804Z,98.50
2023-03-10T20:36:16.807Z,76.50
2023-03-10T20:38:46.208Z,73.00
2023-03-10T20:41:16.119Z,55.30
2023-03-10T20:43:44.359Z,42.20
2023-03-10T20:46:12.902Z,45.70
2023-03-10T20:48:41.002Z,40.90
2023-03-10T20:51:08.971Z,42.30
2023-03-10T20:53:37.483Z,74.70
2023-03-10T20:56:11.623Z,66.10
2023-03-10T20:58:39.431Z,72.80
2023-03-10T21:01:15.540Z,78.90
2023-03-10T21:03:43.490Z,148.90
2023-03-10T21:06:11.426Z,179.80
2023-03-10T21:08:39.274Z,86.20
2023-03-10T21:11:07.146Z,171.00
2023-03-10T21:13:35.551Z,101.30
2023-03-10T21:16:03.862Z,78.40
2023-03-10T21:18:31.775Z,51.80
2023-03-10T21:20:59.566Z,51.20
2023-03-10T21:23:27.521Z,81.00
2023-03-10T21:25:55.440Z,103.10
2023-03-10T21:28:23.241Z,85.00
2023-03-10T21:30:51.178Z,82.70
2023-03-10T21:33:22.854Z,89.50
2023-03-10T21:35:50.663Z,73.70
2023-03-10T21:38:18.460Z,74.30
2023-03-10T21:40:46.224Z,76.50
2023-03-10T21:43:14.186Z,67.40
2023-03-10T21:45:42.048Z,47.60
2023-03-10T21:48:11.590Z,40.50
2023-03-10T21:50:39.480Z,37.70
2023-03-10T21:53:07.449Z,37.20
2023-03-10T21:55:37.250Z,38.20
2023-03-10T21:58:05.756Z,68.90
2023-03-10T22:00:36.215Z,50.00
2023-03-10T22:03:05.060Z,39.00
2023-03-10T22:05:32.898Z,44.00
2023-03-10T22:08:00.769Z,40.90
2023-03-10T22:10:28.699Z,38.40
2023-03-10T22:12:56.935Z,53.70
2023-03-10T22:15:27.225Z,74.50
2023-03-10T22:17:55.780Z,69.70
2023-03-10T22:20:26.470Z,103.90
2023-03-10T22:22:54.953Z,80.50
2023-03-10T22:25:23.741Z,74.50
2023-03-10T22:27:57.115Z,72.60
2023-03-10T22:30:26.647Z,70.30
2023-03-10T22:32:55.615Z,60.50
2023-03-10T22:35:24.088Z,53.40
2023-03-10T22:37:52.741Z,75.50
2023-03-10T22:40:25.199Z,66.90
2023-03-10T22:42:53.977Z,63.50
2023-03-10T22:45:28.101Z,48.00
2023-03-10T22:47:59.244Z,32.10
2023-03-10T22:50:33.755Z,31.80
2023-03-10T22:53:08.233Z,40.60
2023-03-10T22:55:36.274Z,47.10
2023-03-10T22:58:07.157Z,44.60
2023-03-10T23:00:35.336Z,42.10
2023-03-10T23:03:05.084Z,36.10
2023-03-10T23:05:33.434Z,33.20
2023-03-10T23:08:01.504Z,24.10
2023-03-10T23:10:32.328Z,26.00
2023-03-10T23:13:03.178Z,20.00
2023-03-10T23:15:33.952Z,16.40
2023-03-10T23:18:02.365Z,49.60
2023-03-10T23:20:36.645Z,29.80
2023-03-10T23:23:06.250Z,13.00
2023-03-10T23:25:37.597Z,13.30
2023-03-10T23:28:08.231Z,22.30
2023-03-10T23:30:38.625Z,18.70
2023-03-10T23:33:12.048Z,18.80
2023-03-10T23:35:40.736Z,14.50
2023-03-10T23:38:09.288Z,17.80
2023-03-10T23:40:37.074Z,16.80
2023-03-10T23:43:06.909Z,22.20
2023-03-10T23:45:37.611Z,18.50
2023-03-10T23:48:09.160Z,38.00
2023-03-10T23:50:40.704Z,30.40
2023-03-10T23:53:10.562Z,41.80
2023-03-10T23:55:43.909Z,52.40
2023-03-10T23:58:13.292Z,36.30
